Rushland, Pennsylvania
Current Conditions -  °F | °C
As of 8:36 PM on Monday 22 Dec 2014 (Local Time) from KDYL Reporting Station
Light Rain Light Rain  
Wind Chill: 34°   Ceiling: 400
Heat Index: 38°   Visibility: 7mi
Dew Point: 38°   Wind: 5mph
Humidity: 100%   Direction: 40°NE
Pressure: 30.17"   Gusts: NA
Location:  40.26°N, 75.03°W
Report Text: KDYL 230136Z AUTO 04004KT 7SM -RA OVC004 03/03 A3017 RMK AO2 P0001 T00330033
Loading
Personal Weather Stations






























Interactive Weather Map New forecast layout! Learn more

10-Day Weather Forecast

Advertisements
Track Severe Weather on mobile